Hovedside
METAR-TAF:

METAR-TAF

Lufthavner :

Port Angeles, Washington, USA

breddegrad: 48-07-20N, lengdegrad: 123-30-19W, høyde over havet: 87 m

Gjeldene værobservasjon

Denne rapporten ble laget for 34 minutter siden, klokken 16:53 UTC
Vind 4 kt fra Øst
Temperatur 13°C
Luftfuktighet 67%
Trykk 1023 hPa
Sikt: 16.1 km
Skyfri himmel

METAR: KCLM 171653Z AUTO 08004KT 10SM CLR 13/07 A3020 RMK AO2 SLP229 T01280067

Tid: 10:27 (17:27 UTC)

Varsel

Denne rapporten ble laget for 5 timer og 58 minutter siden, klokken 11:29 UTC
Varsel gyldig fra 17. klokken 12 UTC til 18. klokken 12 UTC
Vind 4 kt fra skiftende retning
Sikt: 10 km
Skyfri himmel

TAF: KCLM 171129Z 1712/1812 VRB04KT P6SM SKC

Værobservasjoner og værvarsel for over 4000 flyplasser (METAR- og TAF-rapporter).

Tilgjengelige stasjoner er representert av de røde og gule prikkene på kartet.

Hold musepekeren over prikken for å se navnet på stasjonen.

Klikk så for å se værobservasjoner og -varsler.

For å forandre kartet kan du klikke på den grønne knappen med svart kryss for å zoome inn, på den grønne knappen med strek for å zoome ut, eller på de grønne pilene for å se tilstøtende kart.


METAR-TAF: